createdAt,value
2023-05-05T00:00:17.836Z,5.03
2023-05-05T00:01:51.270Z,4.90
2023-05-05T00:03:23.905Z,4.00
2023-05-05T00:04:57.286Z,4.93
2023-05-05T00:06:31.718Z,4.50
2023-05-05T00:08:05.378Z,4.50
2023-05-05T00:09:38.484Z,4.55
2023-05-05T00:11:10.766Z,4.50
2023-05-05T00:12:44.181Z,4.15
2023-05-05T00:14:17.330Z,4.60
2023-05-05T00:15:52.649Z,4.43
2023-05-05T00:17:25.784Z,4.53
2023-05-05T00:19:00.646Z,4.75
2023-05-05T00:20:33.100Z,4.07
2023-05-05T00:22:07.739Z,4.60
2023-05-05T00:23:41.032Z,4.80
2023-05-05T00:25:14.415Z,5.00
2023-05-05T00:26:46.658Z,4.13
2023-05-05T00:28:19.968Z,4.80
2023-05-05T00:29:52.113Z,4.57
2023-05-05T00:31:25.478Z,5.15
2023-05-05T00:32:59.025Z,5.63
2023-05-05T00:34:32.998Z,4.97
2023-05-05T00:36:06.527Z,4.68
2023-05-05T00:37:40.901Z,5.53
2023-05-05T00:39:14.216Z,4.68
2023-05-05T00:40:47.468Z,5.28
2023-05-05T00:42:20.791Z,4.72
2023-05-05T00:43:54.082Z,5.30
2023-05-05T00:45:27.970Z,5.10
2023-05-05T00:47:00.182Z,5.20
2023-05-05T00:48:33.791Z,5.45
2023-05-05T00:50:09.765Z,5.30
2023-05-05T00:51:43.694Z,5.30
2023-05-05T00:53:18.180Z,4.82
2023-05-05T00:54:50.628Z,4.63
2023-05-05T00:56:27.536Z,5.18
2023-05-05T00:58:01.895Z,5.72
2023-05-05T00:59:34.296Z,4.82
2023-05-05T01:01:08.010Z,4.85
2023-05-05T01:02:41.716Z,4.70
2023-05-05T01:04:15.271Z,4.70
2023-05-05T01:05:56.940Z,4.18
2023-05-05T01:07:40.322Z,4.88
2023-05-05T01:09:25.889Z,4.95
2023-05-05T01:11:04.331Z,4.20
2023-05-05T01:12:47.360Z,5.10
2023-05-05T01:14:24.779Z,4.93
2023-05-05T01:16:06.681Z,4.75
2023-05-05T01:17:44.085Z,4.80
2023-05-05T01:19:45.579Z,4.90
2023-05-05T01:21:24.905Z,4.63
2023-05-05T01:22:59.536Z,4.13
2023-05-05T01:24:51.380Z,4.55
2023-05-05T01:26:44.902Z,5.25
2023-05-05T01:28:32.345Z,4.88
2023-05-05T01:30:18.359Z,4.63
2023-05-05T01:31:55.324Z,4.63
2023-05-05T01:33:32.492Z,4.88
2023-05-05T01:35:15.092Z,4.60
2023-05-05T01:36:54.822Z,4.70
2023-05-05T01:38:36.180Z,5.07
2023-05-05T01:40:11.916Z,5.00
2023-05-05T01:41:49.133Z,5.32
2023-05-05T01:43:26.776Z,4.45
2023-05-05T01:45:01.738Z,4.90
2023-05-05T01:46:36.676Z,4.82
2023-05-05T01:48:12.817Z,4.32
2023-05-05T01:49:48.526Z,4.97
2023-05-05T01:51:25.689Z,5.05
2023-05-05T01:52:59.566Z,4.88
2023-05-05T01:54:34.233Z,4.82
2023-05-05T01:56:08.745Z,4.68
2023-05-05T01:57:44.291Z,4.97
2023-05-05T01:59:18.909Z,4.60
2023-05-05T02:00:54.306Z,4.55
2023-05-05T02:02:30.498Z,5.80
2023-05-05T02:04:09.914Z,4.82
2023-05-05T02:05:44.730Z,4.80
2023-05-05T02:07:19.170Z,4.18
2023-05-05T02:08:54.126Z,4.95
2023-05-05T02:10:29.094Z,5.35
2023-05-05T02:12:04.078Z,4.85
2023-05-05T02:13:39.784Z,4.60
2023-05-05T02:15:15.291Z,4.22
2023-05-05T02:16:48.017Z,5.05
2023-05-05T02:18:23.408Z,4.15
2023-05-05T02:20:00.117Z,4.85
2023-05-05T02:21:32.847Z,5.13
2023-05-05T02:23:08.099Z,4.18
2023-05-05T02:24:41.549Z,5.05
2023-05-05T02:26:16.292Z,4.97
2023-05-05T02:27:51.678Z,4.78
2023-05-05T02:29:32.516Z,4.97
2023-05-05T02:31:07.436Z,4.97
2023-05-05T02:32:45.389Z,4.30
2023-05-05T02:34:23.793Z,4.13
2023-05-05T02:36:00.438Z,4.72
2023-05-05T02:37:36.132Z,4.18
2023-05-05T02:39:14.696Z,4.88
2023-05-05T02:40:52.556Z,4.50
2023-05-05T02:42:28.699Z,29.05
2023-05-05T02:44:05.494Z,5.63
2023-05-05T02:45:40.514Z,4.40
2023-05-05T02:47:14.103Z,4.88
2023-05-05T02:48:47.600Z,4.47
2023-05-05T02:50:21.841Z,4.00
2023-05-05T02:52:10.973Z,4.35
2023-05-05T02:53:46.509Z,4.72
2023-05-05T02:55:19.494Z,4.57
2023-05-05T02:56:52.827Z,4.70
2023-05-05T02:58:32.639Z,4.60
2023-05-05T03:00:14.529Z,4.93
2023-05-05T03:02:01.578Z,4.70
2023-05-05T03:03:41.995Z,3.92
2023-05-05T03:05:22.545Z,4.82
2023-05-05T03:07:00.618Z,4.32
2023-05-05T03:08:44.279Z,4.47
2023-05-05T03:10:22.574Z,4.22
2023-05-05T03:12:03.878Z,4.40
2023-05-05T03:13:45.358Z,3.85
2023-05-05T03:15:26.506Z,4.25
2023-05-05T03:17:02.336Z,4.22
2023-05-05T03:18:37.666Z,4.68
2023-05-05T03:20:13.305Z,5.07
2023-05-05T03:21:49.869Z,3.78
2023-05-05T03:23:23.129Z,4.28
2023-05-05T03:25:02.906Z,4.65
2023-05-05T03:26:35.240Z,5.88
2023-05-05T03:28:09.135Z,4.88
2023-05-05T03:29:42.491Z,4.75
2023-05-05T03:31:19.810Z,4.82
2023-05-05T03:32:57.080Z,5.30
2023-05-05T03:34:30.680Z,5.07
2023-05-05T03:36:05.358Z,4.80
2023-05-05T03:37:39.284Z,4.68
2023-05-05T03:39:12.773Z,5.05
2023-05-05T03:40:46.321Z,5.10
2023-05-05T03:42:23.740Z,5.05
2023-05-05T03:43:57.070Z,5.20
2023-05-05T03:45:31.183Z,5.15
2023-05-05T03:47:04.873Z,5.45
2023-05-05T03:48:39.900Z,4.82
2023-05-05T03:50:13.492Z,4.30
2023-05-05T03:51:47.395Z,5.25
2023-05-05T03:53:20.304Z,5.57
2023-05-05T03:54:54.259Z,4.85
2023-05-05T03:56:29.034Z,4.68
2023-05-05T03:58:02.291Z,5.10
2023-05-05T03:59:34.697Z,4.85
2023-05-05T04:01:08.435Z,5.13
2023-05-05T04:02:40.638Z,4.03
2023-05-05T04:04:16.589Z,4.40
2023-05-05T04:05:49.191Z,4.00
2023-05-05T04:07:23.827Z,5.03
2023-05-05T04:08:57.153Z,4.40
2023-05-05T04:10:29.906Z,5.25
2023-05-05T04:12:04.801Z,4.18
2023-05-05T04:13:38.780Z,4.65
2023-05-05T04:15:12.275Z,4.32
2023-05-05T04:16:47.147Z,4.32
2023-05-05T04:18:19.806Z,5.57
2023-05-05T04:19:53.301Z,3.97
2023-05-05T04:21:26.596Z,4.25
2023-05-05T04:22:59.910Z,4.07
2023-05-05T04:24:33.128Z,3.97
2023-05-05T04:26:06.786Z,4.03
2023-05-05T04:27:41.474Z,4.22
2023-05-05T04:29:15.690Z,4.03
2023-05-05T04:30:49.251Z,4.85
2023-05-05T04:32:21.694Z,4.78
2023-05-05T04:33:55.198Z,4.47
2023-05-05T04:35:28.397Z,4.15
2023-05-05T04:37:01.717Z,4.35
2023-05-05T04:38:35.710Z,4.20
2023-05-05T04:40:10.907Z,4.53
2023-05-05T04:41:45.218Z,5.38
2023-05-05T04:43:18.834Z,11.77
2023-05-05T04:44:52.104Z,6.13
2023-05-05T04:46:26.322Z,6.35
2023-05-05T04:48:00.057Z,5.80
2023-05-05T04:49:33.594Z,4.82
2023-05-05T04:51:07.073Z,5.30
2023-05-05T04:52:40.704Z,5.00
2023-05-05T04:54:14.380Z,4.55
2023-05-05T04:55:49.270Z,5.18
2023-05-05T04:57:23.903Z,4.60
2023-05-05T04:58:58.533Z,5.38
2023-05-05T05:00:32.297Z,4.82
2023-05-05T05:02:06.507Z,5.30
2023-05-05T05:03:39.697Z,4.82
2023-05-05T05:05:12.886Z,4.25
2023-05-05T05:06:46.433Z,4.75
2023-05-05T05:08:20.561Z,5.20
2023-05-05T05:09:53.782Z,4.10
2023-05-05T05:11:27.270Z,4.85
2023-05-05T05:13:00.681Z,4.57
2023-05-05T05:14:40.463Z,4.05
2023-05-05T05:16:13.897Z,4.88
2023-05-05T05:17:47.311Z,4.63
2023-05-05T05:19:20.678Z,4.20
2023-05-05T05:20:54.391Z,4.53
2023-05-05T05:22:27.520Z,4.45
2023-05-05T05:23:59.685Z,4.30
2023-05-05T05:25:33.345Z,4.57
2023-05-05T05:27:10.151Z,7.50
2023-05-05T05:28:46.271Z,11.35
2023-05-05T05:30:20.959Z,6.07
2023-05-05T05:31:54.420Z,4.53
2023-05-05T05:33:27.823Z,3.72
2023-05-05T05:35:01.750Z,4.03
2023-05-05T05:36:35.007Z,4.55
2023-05-05T05:38:09.350Z,4.40
2023-05-05T05:39:43.701Z,5.28
2023-05-05T05:41:17.760Z,4.38
2023-05-05T05:42:51.003Z,4.47
2023-05-05T05:44:24.279Z,3.63
2023-05-05T05:45:59.061Z,3.83
2023-05-05T05:47:32.271Z,4.18
2023-05-05T05:49:05.494Z,4.20
2023-05-05T05:50:38.685Z,4.15
2023-05-05T05:52:12.126Z,5.78
2023-05-05T05:53:45.867Z,4.40
2023-05-05T05:55:19.989Z,3.65
2023-05-05T05:56:53.130Z,3.45
2023-05-05T05:58:27.504Z,3.40
2023-05-05T06:00:01.968Z,3.10
2023-05-05T06:01:46.294Z,2.78
2023-05-05T06:03:19.734Z,3.10
2023-05-05T06:04:53.386Z,3.55
2023-05-05T06:06:27.956Z,2.80
2023-05-05T06:08:01.154Z,3.00
2023-05-05T06:09:35.794Z,3.22
2023-05-05T06:11:09.205Z,5.03
2023-05-05T06:12:42.503Z,3.10
2023-05-05T06:14:14.749Z,2.85
2023-05-05T06:15:48.334Z,2.80
2023-05-05T06:17:24.026Z,3.00
2023-05-05T06:18:57.245Z,2.95
2023-05-05T06:20:31.064Z,2.90
2023-05-05T06:22:04.545Z,2.70
2023-05-05T06:23:38.016Z,4.22
2023-05-05T06:25:13.127Z,2.85
2023-05-05T06:26:46.300Z,2.60
2023-05-05T06:28:19.688Z,3.22
2023-05-05T06:29:52.835Z,2.95
2023-05-05T06:31:26.114Z,2.47
2023-05-05T06:33:00.802Z,2.53
2023-05-05T06:34:34.048Z,2.78
2023-05-05T06:36:07.528Z,3.17
2023-05-05T06:37:40.670Z,2.55
2023-05-05T06:39:15.919Z,3.00
2023-05-05T06:40:50.530Z,2.85
2023-05-05T06:42:23.952Z,2.92
2023-05-05T06:43:58.957Z,2.45
2023-05-05T06:45:32.721Z,2.90
2023-05-05T06:47:06.064Z,3.10
2023-05-05T06:48:40.840Z,2.45
2023-05-05T06:50:14.020Z,4.43
2023-05-05T06:51:47.218Z,2.85
2023-05-05T06:53:20.786Z,2.50
2023-05-05T06:54:54.422Z,2.80
2023-05-05T06:56:27.494Z,2.50
2023-05-05T06:58:01.005Z,2.88
2023-05-05T06:59:34.282Z,2.13
2023-05-05T07:01:07.808Z,2.92
2023-05-05T07:02:41.072Z,2.70
2023-05-05T07:04:16.363Z,3.08
2023-05-05T07:05:50.092Z,2.58
2023-05-05T07:07:23.536Z,2.38
2023-05-05T07:08:56.737Z,2.50
2023-05-05T07:10:29.909Z,2.47
2023-05-05T07:12:04.003Z,2.72
2023-05-05T07:13:37.348Z,2.50
2023-05-05T07:15:23.248Z,1.95
2023-05-05T07:16:59.672Z,2.58
2023-05-05T07:18:32.908Z,2.40
2023-05-05T07:20:09.355Z,2.17
2023-05-05T07:21:42.809Z,2.42
2023-05-05T07:23:16.222Z,2.20
2023-05-05T07:24:51.125Z,2.55
2023-05-05T07:26:25.326Z,2.20
2023-05-05T07:27:58.862Z,2.15
2023-05-05T07:29:32.170Z,2.33
2023-05-05T07:31:05.700Z,2.17
2023-05-05T07:32:38.898Z,2.03
2023-05-05T07:34:13.575Z,1.70
2023-05-05T07:35:48.065Z,2.00
2023-05-05T07:37:21.513Z,1.95
2023-05-05T07:38:55.117Z,1.98
2023-05-05T07:40:28.259Z,1.80
2023-05-05T07:42:01.582Z,2.15
2023-05-05T07:43:34.783Z,2.17
2023-05-05T07:45:09.014Z,1.80
2023-05-05T07:46:42.185Z,1.92
2023-05-05T07:48:15.434Z,1.88
2023-05-05T07:49:48.646Z,2.95
2023-05-05T07:51:23.466Z,2.00
2023-05-05T07:53:06.206Z,1.80
2023-05-05T07:54:48.686Z,1.50
2023-05-05T07:56:21.996Z,1.70
2023-05-05T07:57:55.341Z,1.88
2023-05-05T07:59:28.503Z,1.98
2023-05-05T08:01:02.545Z,1.60
2023-05-05T08:02:35.789Z,2.15
2023-05-05T08:04:09.346Z,1.90
2023-05-05T08:05:42.826Z,1.88
2023-05-05T08:07:17.385Z,2.05
2023-05-05T08:08:50.911Z,2.00
2023-05-05T08:10:24.359Z,2.13
2023-05-05T08:11:57.470Z,1.35
2023-05-05T08:13:31.484Z,1.75
2023-05-05T08:15:05.063Z,1.55
2023-05-05T08:16:38.527Z,1.55
2023-05-05T08:18:11.804Z,1.58
2023-05-05T08:19:44.952Z,1.73
2023-05-05T08:21:18.830Z,1.60
2023-05-05T08:22:53.432Z,1.40
2023-05-05T08:24:26.815Z,1.80
2023-05-05T08:25:59.966Z,1.98
2023-05-05T08:27:35.462Z,1.40
2023-05-05T08:29:08.777Z,1.25
2023-05-05T08:30:43.001Z,1.20
2023-05-05T08:32:16.526Z,1.10
2023-05-05T08:33:50.195Z,1.40
2023-05-05T08:35:23.656Z,1.52
2023-05-05T08:36:56.814Z,1.45
2023-05-05T08:38:31.284Z,2.08
2023-05-05T08:40:05.138Z,1.70
2023-05-05T08:41:38.506Z,1.90
2023-05-05T08:43:12.038Z,2.47
2023-05-05T08:44:45.341Z,2.17
2023-05-05T08:46:19.167Z,2.30
2023-05-05T08:47:53.779Z,2.53
2023-05-05T08:49:27.146Z,2.10
2023-05-05T08:51:03.288Z,2.13
2023-05-05T08:52:42.089Z,2.47
2023-05-05T08:54:21.095Z,1.70
2023-05-05T08:55:57.871Z,2.50
2023-05-05T08:57:37.222Z,1.77
2023-05-05T08:59:12.613Z,2.45
2023-05-05T09:00:46.619Z,2.30
2023-05-05T09:02:23.797Z,2.67
2023-05-05T09:03:59.591Z,2.42
2023-05-05T09:05:32.873Z,1.90
2023-05-05T09:07:06.346Z,2.35
2023-05-05T09:08:39.945Z,2.53
2023-05-05T09:10:14.508Z,3.28
2023-05-05T09:11:48.311Z,2.70
2023-05-05T09:13:21.657Z,1.63
2023-05-05T09:14:54.749Z,2.30
2023-05-05T09:16:27.888Z,2.13
2023-05-05T09:18:01.984Z,1.90
2023-05-05T09:19:35.256Z,1.70
2023-05-05T09:21:20.819Z,2.83
2023-05-05T09:22:53.895Z,2.28
2023-05-05T09:24:27.568Z,2.58
2023-05-05T09:26:06.264Z,2.15
2023-05-05T09:27:40.916Z,2.03
2023-05-05T09:29:19.622Z,2.88
2023-05-05T09:30:53.069Z,2.67
2023-05-05T09:32:28.608Z,1.95
2023-05-05T09:34:04.340Z,2.03
2023-05-05T09:35:51.400Z,2.38
2023-05-05T09:37:29.121Z,2.53
2023-05-05T09:39:07.486Z,2.28
2023-05-05T09:40:47.803Z,2.15
2023-05-05T09:42:22.413Z,1.85
2023-05-05T09:43:55.706Z,2.17
2023-05-05T09:45:29.293Z,1.80
2023-05-05T09:47:05.248Z,2.60
2023-05-05T09:48:40.555Z,2.28
2023-05-05T09:50:16.299Z,1.38
2023-05-05T09:51:49.576Z,1.90
2023-05-05T09:53:22.937Z,1.92
2023-05-05T09:54:57.161Z,1.75
2023-05-05T09:56:39.511Z,2.00
2023-05-05T09:58:23.759Z,1.60
2023-05-05T09:59:58.696Z,1.63
2023-05-05T10:01:31.954Z,2.13
2023-05-05T10:03:05.795Z,1.92
2023-05-05T10:04:38.965Z,1.70
2023-05-05T10:06:12.247Z,1.65
2023-05-05T10:07:46.923Z,1.60
2023-05-05T10:09:20.527Z,1.92
2023-05-05T10:10:54.948Z,1.90
2023-05-05T10:12:29.058Z,1.88
2023-05-05T10:14:05.754Z,1.52
2023-05-05T10:15:39.585Z,1.52
2023-05-05T10:17:13.432Z,1.55
2023-05-05T10:18:48.053Z,1.40
2023-05-05T10:20:23.848Z,1.70
2023-05-05T10:22:04.417Z,1.85
2023-05-05T10:23:42.775Z,1.80
2023-05-05T10:25:17.257Z,1.67
2023-05-05T10:26:51.122Z,2.08
2023-05-05T10:28:31.590Z,1.50
2023-05-05T10:30:09.461Z,1.42
2023-05-05T10:31:47.909Z,2.30
2023-05-05T10:33:30.757Z,2.20
2023-05-05T10:35:08.911Z,2.25
2023-05-05T10:36:43.074Z,2.28
2023-05-05T10:38:17.518Z,2.65
2023-05-05T10:39:52.669Z,2.15
2023-05-05T10:41:26.835Z,3.78
2023-05-05T10:43:00.628Z,2.13
2023-05-05T10:44:34.363Z,2.92
2023-05-05T10:46:09.321Z,2.80
2023-05-05T10:47:44.605Z,2.25
2023-05-05T10:49:25.973Z,2.30
2023-05-05T10:51:18.829Z,2.47
2023-05-05T10:53:08.704Z,2.03
2023-05-05T10:54:48.337Z,2.20
2023-05-05T10:56:27.573Z,2.78
2023-05-05T10:58:01.008Z,2.65
2023-05-05T10:59:47.859Z,2.65
2023-05-05T11:01:32.748Z,2.28
2023-05-05T11:03:23.164Z,2.40
2023-05-05T11:05:18.395Z,2.90
2023-05-05T11:07:23.383Z,2.30
2023-05-05T11:08:57.347Z,2.22
2023-05-05T11:10:45.721Z,2.55
2023-05-05T11:12:18.831Z,2.25
2023-05-05T11:14:21.260Z,2.13
2023-05-05T11:15:55.622Z,2.22
2023-05-05T11:17:48.444Z,2.30
2023-05-05T11:19:46.857Z,2.45
2023-05-05T11:21:20.359Z,2.65
2023-05-05T11:23:24.402Z,2.65
2023-05-05T11:24:57.656Z,2.83
2023-05-05T11:26:50.144Z,3.47
2023-05-05T11:28:25.705Z,2.03
2023-05-05T11:30:09.912Z,2.20
2023-05-05T11:31:43.263Z,1.90
2023-05-05T11:33:26.401Z,2.55
2023-05-05T11:34:59.624Z,3.40
2023-05-05T11:36:42.336Z,2.47
2023-05-05T11:38:16.946Z,2.45
2023-05-05T11:40:04.365Z,2.50
2023-05-05T11:41:55.209Z,2.08
2023-05-05T11:43:29.282Z,2.78
2023-05-05T11:45:03.482Z,3.17
2023-05-05T11:46:36.865Z,2.63
2023-05-05T11:48:32.185Z,3.47
2023-05-05T11:50:19.939Z,1.95
2023-05-05T11:51:57.806Z,2.35
2023-05-05T11:53:31.265Z,2.08
2023-05-05T11:55:05.377Z,1.98
2023-05-05T11:56:51.160Z,2.80
2023-05-05T11:58:24.465Z,2.00
2023-05-05T11:59:59.919Z,2.17
2023-05-05T12:01:33.162Z,2.08
2023-05-05T12:03:06.494Z,2.47
2023-05-05T12:04:42.282Z,2.05
2023-05-05T12:06:15.794Z,2.17
2023-05-05T12:07:49.210Z,2.10
2023-05-05T12:09:23.987Z,2.13
2023-05-05T12:11:03.970Z,2.20
2023-05-05T12:12:39.420Z,1.90
2023-05-05T12:14:13.053Z,2.05
2023-05-05T12:15:46.607Z,2.20
2023-05-05T12:17:21.912Z,2.15
2023-05-05T12:19:05.820Z,2.33
2023-05-05T12:20:41.782Z,1.85
2023-05-05T12:22:19.889Z,2.00
2023-05-05T12:23:53.211Z,2.45
2023-05-05T12:25:26.683Z,2.05
2023-05-05T12:27:09.087Z,2.30
2023-05-05T12:28:46.472Z,2.65
2023-05-05T12:30:20.869Z,1.85
2023-05-05T12:31:54.212Z,7.35
2023-05-05T12:33:27.591Z,1.88
2023-05-05T12:35:01.510Z,2.90
2023-05-05T12:36:37.266Z,2.25
2023-05-05T12:38:10.714Z,3.55
2023-05-05T12:39:43.856Z,2.60
2023-05-05T12:41:22.382Z,2.58
2023-05-05T12:42:55.902Z,2.28
2023-05-05T12:44:36.339Z,2.90
2023-05-05T12:46:11.998Z,3.55
2023-05-05T12:47:45.530Z,4.60
2023-05-05T12:49:18.937Z,3.08
2023-05-05T12:50:52.363Z,3.53
2023-05-05T12:52:44.184Z,4.25
2023-05-05T12:54:17.542Z,2.25
2023-05-05T12:55:52.206Z,3.30
2023-05-05T12:57:26.387Z,2.30
2023-05-05T12:58:59.582Z,2.40
2023-05-05T13:00:32.849Z,2.53
2023-05-05T13:02:06.441Z,2.25
2023-05-05T13:03:40.043Z,3.05
2023-05-05T13:05:13.362Z,2.75
2023-05-05T13:06:48.322Z,2.50
2023-05-05T13:08:23.000Z,2.88
2023-05-05T13:10:08.470Z,2.38
2023-05-05T13:11:41.637Z,3.08
2023-05-05T13:13:15.061Z,2.80
2023-05-05T13:14:48.616Z,3.67
2023-05-05T13:16:20.851Z,3.42
2023-05-05T13:18:01.234Z,2.67
2023-05-05T13:19:35.699Z,2.88
2023-05-05T13:21:08.969Z,3.47
2023-05-05T13:22:42.236Z,2.65
2023-05-05T13:25:53.124Z,2.75
2023-05-05T13:27:26.454Z,2.78
2023-05-05T13:28:59.575Z,2.50
2023-05-05T13:30:32.740Z,2.65
2023-05-05T13:32:06.518Z,3.30
2023-05-05T13:33:39.725Z,2.80
2023-05-05T13:35:15.999Z,2.80
2023-05-05T13:36:49.658Z,2.72
2023-05-05T13:38:23.061Z,3.30
2023-05-05T13:39:59.567Z,3.33
2023-05-05T13:41:32.693Z,2.30
2023-05-05T13:43:05.830Z,2.15
2023-05-05T13:44:39.481Z,3.35
2023-05-05T13:46:20.186Z,3.28
2023-05-05T13:47:53.673Z,2.75
2023-05-05T13:49:27.140Z,2.65
2023-05-05T13:51:00.474Z,3.20
2023-05-05T13:52:33.830Z,2.78
2023-05-05T13:54:07.850Z,2.80
2023-05-05T13:55:43.214Z,3.22
2023-05-05T13:57:17.058Z,3.00
2023-05-05T13:58:49.346Z,3.03
2023-05-05T14:00:22.913Z,2.85
2023-05-05T14:01:56.097Z,3.20
2023-05-05T14:03:28.417Z,3.45
2023-05-05T14:05:01.873Z,3.97
2023-05-05T14:06:35.835Z,11.07
2023-05-05T14:08:08.936Z,5.25
2023-05-05T14:09:42.172Z,5.15
2023-05-05T14:11:18.234Z,3.83
2023-05-05T14:12:52.311Z,3.67
2023-05-05T14:14:25.580Z,3.83
2023-05-05T14:15:59.245Z,4.30
2023-05-05T14:17:32.485Z,2.90
2023-05-05T14:19:05.665Z,3.50
2023-05-05T14:20:37.805Z,3.83
2023-05-05T14:22:11.059Z,3.75
2023-05-05T14:23:44.379Z,4.38
2023-05-05T14:25:17.601Z,3.67
2023-05-05T14:26:52.152Z,4.90
2023-05-05T14:28:25.389Z,4.38
2023-05-05T14:29:58.681Z,4.72
2023-05-05T14:31:31.876Z,4.28
2023-05-05T14:33:04.107Z,4.07
2023-05-05T14:34:37.521Z,4.38
2023-05-05T14:36:10.964Z,3.72
2023-05-05T14:37:44.073Z,3.08
2023-05-05T14:39:17.349Z,3.58
2023-05-05T14:40:50.490Z,3.55
2023-05-05T14:42:25.164Z,2.95
2023-05-05T14:43:59.237Z,4.25
2023-05-05T14:45:32.958Z,6.13
2023-05-05T14:47:06.557Z,3.63
2023-05-05T14:48:40.151Z,3.92
2023-05-05T14:50:14.183Z,4.70
2023-05-05T14:51:47.442Z,4.15
2023-05-05T14:53:20.774Z,3.80
2023-05-05T14:54:54.149Z,3.70
2023-05-05T14:56:28.244Z,3.30
2023-05-05T14:58:02.705Z,3.40
2023-05-05T14:59:36.034Z,5.10
2023-05-05T15:01:09.297Z,4.13
2023-05-05T15:02:42.571Z,4.10
2023-05-05T15:04:15.912Z,4.15
2023-05-05T15:05:49.117Z,4.45
2023-05-05T15:07:22.846Z,4.13
2023-05-05T15:08:56.004Z,6.03
2023-05-05T15:10:29.153Z,5.28
2023-05-05T15:12:02.378Z,4.20
2023-05-05T15:13:38.804Z,4.25
2023-05-05T15:15:12.666Z,4.43
2023-05-05T15:16:46.856Z,3.92
2023-05-05T15:18:20.317Z,5.22
2023-05-05T15:19:53.886Z,5.50
2023-05-05T15:21:27.085Z,4.20
2023-05-05T15:23:01.405Z,4.43
2023-05-05T15:24:34.709Z,4.15
2023-05-05T15:26:08.184Z,4.03
2023-05-05T15:27:41.504Z,4.18
2023-05-05T15:29:15.978Z,3.72
2023-05-05T15:30:49.334Z,4.47
2023-05-05T15:32:23.011Z,4.40
2023-05-05T15:33:56.276Z,4.57
2023-05-05T15:35:29.417Z,5.18
2023-05-05T15:37:02.608Z,6.60
2023-05-05T15:38:43.457Z,4.93
2023-05-05T15:40:16.569Z,5.20
2023-05-05T15:41:49.725Z,5.68
2023-05-05T15:43:22.914Z,5.03
2023-05-05T15:44:57.508Z,7.05
2023-05-05T15:46:34.021Z,6.20
2023-05-05T15:48:07.846Z,5.72
2023-05-05T15:49:41.188Z,6.38
2023-05-05T15:51:14.500Z,5.60
2023-05-05T15:52:49.823Z,5.20
2023-05-05T15:54:23.241Z,4.38
2023-05-05T15:55:56.652Z,4.20
2023-05-05T15:57:30.058Z,4.65
2023-05-05T15:59:03.410Z,5.68
2023-05-05T16:00:38.105Z,6.35
2023-05-05T16:02:11.525Z,5.63
2023-05-05T16:03:44.913Z,6.78
2023-05-05T16:05:18.529Z,10.30
2023-05-05T16:06:52.795Z,4.78
2023-05-05T16:08:26.186Z,5.47
2023-05-05T16:09:59.483Z,4.45
2023-05-05T16:11:32.622Z,4.68
2023-05-05T16:13:05.763Z,5.53
2023-05-05T16:14:39.250Z,4.55
2023-05-05T16:16:12.954Z,4.20
2023-05-05T16:17:46.100Z,5.45
2023-05-05T16:19:19.330Z,4.75
2023-05-05T16:20:52.749Z,4.78
2023-05-05T16:22:26.096Z,5.85
2023-05-05T16:23:59.242Z,5.40
2023-05-05T16:25:32.297Z,5.88
2023-05-05T16:27:05.814Z,5.60
2023-05-05T16:28:39.437Z,5.38
2023-05-05T16:30:15.486Z,6.38
2023-05-05T16:31:50.130Z,6.95
2023-05-05T16:33:23.477Z,4.82
2023-05-05T16:34:57.095Z,6.07
2023-05-05T16:36:30.572Z,4.90
2023-05-05T16:38:03.723Z,5.75
2023-05-05T16:39:40.345Z,8.70
2023-05-05T16:41:14.005Z,7.15
2023-05-05T16:42:47.177Z,5.95
2023-05-05T16:44:20.302Z,4.35
2023-05-05T16:45:53.746Z,5.00
2023-05-05T16:47:28.638Z,5.90
2023-05-05T16:49:01.832Z,6.57
2023-05-05T16:50:34.981Z,8.55
2023-05-05T16:52:09.002Z,7.07
2023-05-05T16:53:42.285Z,8.50
2023-05-05T16:55:14.639Z,7.10
2023-05-05T16:56:47.855Z,8.32
2023-05-05T16:58:22.499Z,6.90
2023-05-05T16:59:57.323Z,9.20
2023-05-05T17:01:30.453Z,7.97
2023-05-05T17:03:05.101Z,6.57
2023-05-05T17:04:38.405Z,6.80
2023-05-05T17:06:13.339Z,7.93
2023-05-05T17:07:48.215Z,7.75
2023-05-05T17:09:24.908Z,7.72
2023-05-05T17:10:58.211Z,7.32
2023-05-05T17:12:31.491Z,8.32
2023-05-05T17:14:04.703Z,6.82
2023-05-05T17:15:38.298Z,6.72
2023-05-05T17:17:11.715Z,6.63
2023-05-05T17:18:46.391Z,7.07
2023-05-05T17:20:19.509Z,5.90
2023-05-05T17:21:52.654Z,5.53
2023-05-05T17:23:25.955Z,4.85
2023-05-05T17:24:59.126Z,5.63
2023-05-05T17:26:32.336Z,6.00
2023-05-05T17:28:07.487Z,5.82
2023-05-05T17:29:41.424Z,6.53
2023-05-05T17:31:14.893Z,6.20
2023-05-05T17:32:48.480Z,6.03
2023-05-05T17:34:23.135Z,6.10
2023-05-05T17:35:56.439Z,5.68
2023-05-05T17:37:29.781Z,6.07
2023-05-05T17:39:02.890Z,5.95
2023-05-05T17:40:36.072Z,6.10
2023-05-05T17:42:09.278Z,5.82
2023-05-05T17:43:42.531Z,6.30
2023-05-05T17:45:15.677Z,5.80
2023-05-05T17:46:48.912Z,9.45
2023-05-05T17:48:22.363Z,9.38
2023-05-05T17:49:58.444Z,9.65
2023-05-05T17:51:31.736Z,9.23
2023-05-05T17:53:05.018Z,10.25
2023-05-05T17:54:38.463Z,11.27
2023-05-05T17:56:11.803Z,12.40
2023-05-05T17:57:45.029Z,12.70
2023-05-05T17:59:18.372Z,9.60
2023-05-05T18:00:52.041Z,14.32
2023-05-05T18:02:25.499Z,14.15
2023-05-05T18:03:58.705Z,13.70
2023-05-05T18:05:33.437Z,11.90
2023-05-05T18:07:06.844Z,9.52
2023-05-05T18:08:40.267Z,12.23
2023-05-05T18:10:13.878Z,10.32
2023-05-05T18:11:47.214Z,7.05
2023-05-05T18:13:21.515Z,6.60
2023-05-05T18:14:54.968Z,7.10
2023-05-05T18:16:28.168Z,7.47
2023-05-05T18:18:02.218Z,8.05
2023-05-05T18:19:35.465Z,8.23
2023-05-05T18:21:12.433Z,6.60
2023-05-05T18:22:46.689Z,6.00
2023-05-05T18:24:20.774Z,6.78
2023-05-05T18:25:54.117Z,6.18
2023-05-05T18:27:27.751Z,7.18
2023-05-05T18:29:01.013Z,10.00
2023-05-05T18:30:35.686Z,13.45
2023-05-05T18:32:09.033Z,17.17
2023-05-05T18:33:42.471Z,14.68
2023-05-05T18:35:15.709Z,14.77
2023-05-05T18:36:54.321Z,12.38
2023-05-05T18:38:27.603Z,13.00
2023-05-05T18:39:59.785Z,10.55
2023-05-05T18:41:32.978Z,11.43
2023-05-05T18:43:06.242Z,9.32
2023-05-05T18:44:39.532Z,7.47
2023-05-05T18:46:13.004Z,7.95
2023-05-05T18:47:46.226Z,9.23
2023-05-05T18:49:22.028Z,8.18
2023-05-05T18:50:55.721Z,8.77
2023-05-05T18:52:30.397Z,12.10
2023-05-05T18:54:03.597Z,12.25
2023-05-05T18:55:36.723Z,10.13
2023-05-05T18:57:10.056Z,22.88
2023-05-05T18:58:43.236Z,18.02
2023-05-05T19:00:19.861Z,22.25
2023-05-05T19:01:53.043Z,17.30
2023-05-05T19:03:26.830Z,11.07
2023-05-05T19:05:00.226Z,14.38
2023-05-05T19:06:33.506Z,15.18
2023-05-05T19:08:08.398Z,14.10
2023-05-05T19:09:41.641Z,14.65
2023-05-05T19:11:15.284Z,10.15
2023-05-05T19:12:49.043Z,12.18
2023-05-05T19:14:22.830Z,11.27
2023-05-05T19:15:57.219Z,12.10
2023-05-05T19:17:30.901Z,7.60
2023-05-05T19:19:04.119Z,8.75
2023-05-05T19:20:40.924Z,7.22
2023-05-05T19:22:14.308Z,7.07
2023-05-05T19:23:49.272Z,7.30
2023-05-05T19:25:22.384Z,6.50
2023-05-05T19:26:55.444Z,6.65
2023-05-05T19:28:28.972Z,5.72
2023-05-05T19:30:02.300Z,6.68
2023-05-05T19:31:35.461Z,5.70
2023-05-05T19:33:08.723Z,5.63
2023-05-05T19:34:42.418Z,6.15
2023-05-05T19:36:16.775Z,5.68
2023-05-05T19:37:49.949Z,5.75
2023-05-05T19:39:24.599Z,6.15
2023-05-05T19:40:57.853Z,6.07
2023-05-05T19:42:31.129Z,5.57
2023-05-05T19:44:04.261Z,5.82
2023-05-05T19:45:37.581Z,6.28
2023-05-05T19:47:11.221Z,6.90
2023-05-05T19:48:44.799Z,13.85
2023-05-05T19:50:18.050Z,17.25
2023-05-05T19:51:52.119Z,13.25
2023-05-05T19:53:25.606Z,8.52
2023-05-05T19:55:00.411Z,7.68
2023-05-05T19:56:33.565Z,6.40
2023-05-05T19:58:06.718Z,6.53
2023-05-05T19:59:40.293Z,5.63
2023-05-05T20:01:13.691Z,6.05
2023-05-05T20:02:48.693Z,5.80
2023-05-05T20:04:21.967Z,5.82
2023-05-05T20:05:55.377Z,6.10
2023-05-05T20:07:28.754Z,5.25
2023-05-05T20:09:02.058Z,5.60
2023-05-05T20:10:36.644Z,5.35
2023-05-05T20:12:10.894Z,5.40
2023-05-05T20:13:44.953Z,7.45
2023-05-05T20:15:20.412Z,7.50
2023-05-05T20:16:53.631Z,8.43
2023-05-05T20:18:26.910Z,8.38
2023-05-05T20:20:00.201Z,10.25
2023-05-05T20:21:34.961Z,7.90
2023-05-05T20:23:08.136Z,13.30
2023-05-05T20:24:40.487Z,12.13
2023-05-05T20:26:15.110Z,10.55
2023-05-05T20:27:48.329Z,7.20
2023-05-05T20:29:22.123Z,6.80
2023-05-05T20:30:55.472Z,6.18
2023-05-05T20:32:28.798Z,6.95
2023-05-05T20:34:02.052Z,5.70
2023-05-05T20:35:35.506Z,5.25
2023-05-05T20:37:09.397Z,5.38
2023-05-05T20:38:45.460Z,5.57
2023-05-05T20:40:18.817Z,5.40
2023-05-05T20:41:53.404Z,5.03
2023-05-05T20:43:26.817Z,5.72
2023-05-05T20:45:02.487Z,5.35
2023-05-05T20:46:36.068Z,5.47
2023-05-05T20:48:11.233Z,6.68
2023-05-05T20:49:44.639Z,6.13
2023-05-05T20:51:17.855Z,6.55
2023-05-05T20:52:51.029Z,5.25
2023-05-05T20:54:24.185Z,6.10
2023-05-05T20:55:57.550Z,5.38
2023-05-05T20:57:32.359Z,5.88
2023-05-05T20:59:05.527Z,5.28
2023-05-05T21:00:37.700Z,6.25
2023-05-05T21:02:11.101Z,5.93
2023-05-05T21:03:45.572Z,5.93